Ville Platte, Louisiana
Current Conditions -  °F | °C
As of 5:15 PM on Friday 31 Oct 2014 (Local Time) from KOPL Reporting Station
Scattered Clouds Scattered Clouds  
Wind Chill: 69°   Ceiling: Unl
Heat Index: 69°   Visibility: 10mi
Dew Point: 47°   Wind: 16mph
Humidity: 45%   Direction: 340°NNW
Pressure: 30.11"   Gusts: NA
Location:  30.69°N, 92.28°W
Report Text: KOPL 312215Z AUTO 34014KT 10SM SCT055 21/08 A3011 RMK AO2 T02060084
Loading
Personal Weather Stations






























Interactive Weather Map
Tropical Storm Tracking
New forecast layout! Learn more

10-Day Weather Forecast

Advertisements
Track Severe Weather on mobile